Time;durP1;ratioP1;P1;durP2;ratioP2;P2;SDS_P1;SDS_P2;PMS_P1;PMS_P2;Temp;Humidity;BMP_temperature;BMP_pressure;BME280_temperature;BME280_humidity;BME280_pressure;Samples;Min_cycle;Max_cycle;Signal;HPM_P1;HPM_P2
2022/03/30 00:01:11;;;;;;;9.02;5.72;;;;;;;-1.01;53.48;98391.19;5073086;28;20052;-59
2022/03/30 00:03:37;;;;;;;8.40;5.20;;;;;;;-1.01;53.60;98391.19;5074422;28;20029;-55
2022/03/30 00:06:05;;;;;;;10.32;5.75;;;;;;;-1.01;53.12;98392.97;5074039;28;20107;-55
2022/03/30 00:08:31;;;;;;;8.32;5.95;;;;;;;-1.02;53.71;98394.75;5074072;28;20029;-56
2022/03/30 00:10:57;;;;;;;10.25;6.18;;;;;;;-1.02;53.54;98388.66;5073930;28;20036;-54
2022/03/30 00:13:23;;;;;;;7.93;5.80;;;;;;;-1.00;54.06;98399.91;5073994;28;20033;-57
2022/03/30 00:15:49;;;;;;;8.38;5.72;;;;;;;-0.99;54.08;98396.34;5074016;28;20033;-55
2022/03/30 00:18:15;;;;;;;10.00;6.07;;;;;;;-0.92;53.46;98402.13;5073689;28;20111;-58
2022/03/30 00:20:40;;;;;;;13.27;5.95;;;;;;;-0.99;53.07;98387.63;5073667;28;20127;-57
2022/03/30 00:23:06;;;;;;;9.52;5.43;;;;;;;-1.13;52.91;98375.25;5074052;28;20071;-58
2022/03/30 00:25:31;;;;;;;6.88;5.10;;;;;;;-0.96;53.52;98404.06;5073857;28;20029;-56
2022/03/30 00:27:57;;;;;;;9.15;5.35;;;;;;;-0.98;53.28;98407.69;5073636;28;20422;-57
2022/03/30 00:30:23;;;;;;;9.00;5.40;;;;;;;-1.04;54.25;98401.03;5073471;28;20033;-57
2022/03/30 00:32:48;;;;;;;9.23;6.20;;;;;;;-1.04;53.50;98407.13;5073536;28;20037;-56
2022/03/30 00:35:15;;;;;;;8.27;6.25;;;;;;;-1.06;53.64;98408.97;5073566;28;20075;-57
2022/03/30 00:37:41;;;;;;;9.13;6.25;;;;;;;-1.08;53.62;98413.47;5073731;28;20055;-54
2022/03/30 00:40:11;;;;;;;9.20;6.10;;;;;;;-1.08;53.54;98421.34;5073514;28;20040;-60
2022/03/30 00:42:37;;;;;;;9.55;6.25;;;;;;;-1.07;53.86;98417.78;5055618;28;20425;-59
2022/03/30 00:45:11;;;;;;;8.00;5.80;;;;;;;-1.02;53.95;98425.44;5055334;28;20025;-57
2022/03/30 00:47:37;;;;;;;9.10;6.05;;;;;;;-1.04;53.72;98422.88;5073272;28;20040;-57
2022/03/30 00:50:04;;;;;;;9.85;6.30;;;;;;;-1.05;53.36;98420.34;5055193;28;20032;-57
2022/03/30 00:52:30;;;;;;;10.00;6.10;;;;;;;-1.08;54.27;98421.34;5073162;28;20028;-56
2022/03/30 00:54:57;;;;;;;9.27;5.70;;;;;;;-1.17;53.86;98414.00;5073192;28;20086;-55
2022/03/30 00:57:23;;;;;;;10.02;6.07;;;;;;;-1.23;53.72;98416.94;5073241;28;20048;-54
2022/03/30 00:59:50;;;;;;;10.57;5.82;;;;;;;-1.17;53.93;98427.13;5073046;28;20036;-57
2022/03/30 01:02:16;;;;;;;10.10;5.60;;;;;;;-1.22;54.20;98434.41;5072859;28;20025;-59
2022/03/30 01:04:45;;;;;;;9.35;6.00;;;;;;;-1.22;55.10;98434.41;5073403;28;20492;-57
2022/03/30 01:07:11;;;;;;;9.00;5.45;;;;;;;-1.26;54.87;98432.88;5073109;28;20039;-56
2022/03/30 01:09:37;;;;;;;7.07;4.82;;;;;;;-1.27;53.78;98442.53;5072995;28;20036;-54
2022/03/30 01:12:03;;;;;;;9.20;5.75;;;;;;;-1.30;54.47;98438.28;5072850;28;20563;-52
2022/03/30 01:14:30;;;;;;;7.28;5.50;;;;;;;-1.26;54.65;98440.75;5072640;28;20029;-52
2022/03/30 01:16:55;;;;;;;7.80;5.22;;;;;;;-1.30;54.53;98437.47;5073068;28;20031;-57
2022/03/30 01:19:21;;;;;;;8.82;5.40;;;;;;;-1.22;53.93;98440.50;5072603;28;20032;-55
2022/03/30 01:21:46;;;;;;;8.32;5.57;;;;;;;-1.19;54.30;98444.75;5072771;28;20111;-58
2022/03/30 01:24:13;;;;;;;7.78;5.05;;;;;;;-1.28;53.86;98429.47;5073132;28;20046;-55
2022/03/30 01:26:40;;;;;;;8.52;4.55;;;;;;;-1.22;54.17;98451.00;5073246;28;20044;-54
2022/03/30 01:32:25;;;;;;;9.13;5.18;;;;;;;-1.21;53.62;98454.47;5072359;28;20127;-54
2022/03/30 01:34:37;;;;;;;8.50;5.35;;;;;;;-1.09;53.84;98451.19;5072438;28;20361;-54
2022/03/30 01:37:05;;;;;;;7.10;4.95;;;;;;;-1.16;53.93;98447.22;5072437;28;20044;-56
2022/03/30 01:39:31;;;;;;;7.45;4.90;;;;;;;-1.11;53.07;98460.94;5072382;28;20116;-58
2022/03/30 01:41:56;;;;;;;7.68;4.60;;;;;;;-1.11;53.97;98463.56;5072586;28;20111;-57
2022/03/30 01:44:22;;;;;;;8.13;4.90;;;;;;;-1.14;53.78;98473.38;5072328;28;20033;-55
2022/03/30 01:46:48;;;;;;;7.75;4.35;;;;;;;-1.17;53.93;98475.25;5072182;28;20419;-57
2022/03/30 01:49:13;;;;;;;8.18;4.25;;;;;;;-1.20;53.95;98470.16;5072531;28;20032;-58
2022/03/30 01:51:39;;;;;;;7.88;4.57;;;;;;;-1.26;54.04;98480.13;5072343;28;20398;-57
2022/03/30 01:54:04;;;;;;;7.78;4.18;;;;;;;-1.27;53.93;98481.94;5072137;28;20136;-55
2022/03/30 01:56:30;;;;;;;6.90;4.70;;;;;;;-1.25;54.06;98476.56;5071713;28;20043;-57
2022/03/30 01:58:56;;;;;;;5.57;4.20;;;;;;;-1.23;54.29;98475.56;5072101;28;20062;-59
2022/03/30 02:01:21;;;;;;;9.20;4.57;;;;;;;-1.22;54.28;98487.78;5071867;28;20078;-57
2022/03/30 02:03:47;;;;;;;5.28;3.55;;;;;;;-1.17;53.41;98495.41;5072014;28;20347;-54
2022/03/30 02:06:14;;;;;;;6.93;4.38;;;;;;;-1.19;53.80;98482.34;5072086;28;20032;-53
2022/03/30 02:08:39;;;;;;;6.63;3.53;;;;;;;-1.27;53.41;98481.06;5071607;28;20047;-56
2022/03/30 02:11:05;;;;;;;6.22;4.07;;;;;;;-1.25;53.63;98480.06;5071710;28;20029;-55
2022/03/30 02:13:30;;;;;;;8.70;4.47;;;;;;;-1.26;53.51;98496.75;5071157;28;20107;-58
2022/03/30 02:15:56;;;;;;;6.20;4.60;;;;;;;-1.34;54.30;98484.03;5071776;28;20028;-57
2022/03/30 02:18:21;;;;;;;7.65;4.68;;;;;;;-1.39;55.06;98490.44;5071612;28;20099;-54
2022/03/30 02:20:47;;;;;;;8.18;4.75;;;;;;;-1.43;54.96;98488.91;5071525;28;20125;-54
2022/03/30 02:23:12;;;;;;;8.32;4.95;;;;;;;-1.43;55.27;98495.03;5071878;28;20107;-55
2022/03/30 02:25:38;;;;;;;8.50;5.13;;;;;;;-1.47;55.32;98488.22;5071404;28;20029;-57
2022/03/30 02:28:04;;;;;;;6.35;4.70;;;;;;;-1.47;55.27;98498.72;5071245;28;20080;-60
2022/03/30 02:30:30;;;;;;;7.35;5.00;;;;;;;-1.48;55.64;98503.16;5053688;28;20378;-61
2022/03/30 02:32:56;;;;;;;6.60;4.55;;;;;;;-1.47;55.01;98509.22;5071483;28;20039;-57
2022/03/30 02:35:22;;;;;;;7.40;4.65;;;;;;;-1.59;55.42;98516.81;5071020;28;20067;-57
2022/03/30 02:37:49;;;;;;;8.30;4.43;;;;;;;-1.58;55.26;98517.66;5071078;28;20127;-52
2022/03/30 02:40:14;;;;;;;5.20;3.70;;;;;;;-1.68;54.19;98521.69;5071417;28;20101;-49
2022/03/30 02:42:39;;;;;;;5.95;3.67;;;;;;;-1.70;54.18;98524.38;5071049;28;20037;-56
2022/03/30 02:45:06;;;;;;;5.03;3.33;;;;;;;-1.80;53.99;98517.94;5071060;28;20081;-57
2022/03/30 02:50:15;;;;;;;5.03;3.53;;;;;;;-1.74;54.93;98534.22;5071458;28;20090;-53
2022/03/30 02:52:40;;;;;;;4.97;3.63;;;;;;;-1.74;54.39;98541.22;5071116;28;20024;-55
2022/03/30 02:55:06;;;;;;;8.05;3.55;;;;;;;-1.81;54.87;98545.97;5070931;28;20124;-56
2022/03/30 02:57:32;;;;;;;5.35;3.67;;;;;;;-1.85;55.59;98546.19;5071112;28;20033;-55
2022/03/30 02:59:57;;;;;;;5.72;3.50;;;;;;;-1.90;55.19;98544.63;5070908;28;20024;-57
2022/03/30 03:02:23;;;;;;;3.80;3.20;;;;;;;-1.91;54.68;98561.31;5070822;28;20034;-55
2022/03/30 03:04:48;;;;;;;6.80;3.50;;;;;;;-1.96;54.75;98558.03;5071316;28;20021;-55
2022/03/30 03:07:16;;;;;;;4.38;3.35;;;;;;;-1.97;54.72;98563.38;5070798;28;20104;-56
2022/03/30 03:09:41;;;;;;;6.53;3.70;;;;;;;-1.96;54.76;98563.28;5070673;28;20044;-57
2022/03/30 03:12:07;;;;;;;5.72;3.53;;;;;;;-1.94;55.02;98561.44;5071030;28;20032;-54
2022/03/30 03:14:33;;;;;;;3.85;2.90;;;;;;;-1.92;54.36;98559.59;5070762;28;20028;-56
2022/03/30 03:16:58;;;;;;;5.45;2.97;;;;;;;-1.98;54.09;98559.06;5052666;28;20025;-54
2022/03/30 03:19:24;;;;;;;6.05;3.05;;;;;;;-2.01;53.92;98567.91;5070862;28;20028;-54
2022/03/30 03:21:50;;;;;;;4.15;2.88;;;;;;;-2.03;53.80;98565.38;5071172;28;20052;-57
2022/03/30 03:24:15;;;;;;;5.15;2.75;;;;;;;-2.03;54.17;98575.00;5071966;28;20044;-57
2022/03/30 03:26:41;;;;;;;3.45;2.85;;;;;;;-2.07;53.98;98562.97;5074931;28;20029;-52
2022/03/30 03:29:06;;;;;;;5.28;3.30;;;;;;;-2.01;53.79;98578.41;5074741;28;20120;-55
2022/03/30 03:31:32;;;;;;;5.72;3.28;;;;;;;-2.05;53.85;98574.25;5074257;28;20066;-53
2022/03/30 03:33:57;;;;;;;3.78;2.83;;;;;;;-2.33;53.01;98554.59;5074698;28;20420;-57
2022/03/30 03:36:23;;;;;;;4.25;3.45;;;;;;;-2.26;53.67;98592.72;5056515;28;20131;-58
2022/03/30 03:38:49;;;;;;;4.45;2.90;;;;;;;-2.34;53.43;98589.63;5056771;28;20036;-56
2022/03/30 03:41:15;;;;;;;5.38;3.10;;;;;;;-2.49;53.79;98581.53;5073952;28;20036;-58
2022/03/30 03:43:40;;;;;;;4.50;3.28;;;;;;;-2.42;54.24;98594.34;5074345;28;20028;-63
2022/03/30 03:46:06;;;;;;;5.55;3.30;;;;;;;-2.38;53.75;98601.19;5074198;28;20029;-63
2022/03/30 03:48:32;;;;;;;4.70;3.67;;;;;;;-2.31;53.88;98598.16;5074544;28;20187;-63
2022/03/30 03:50:57;;;;;;;4.32;3.33;;;;;;;-2.27;54.16;98556.09;5056850;28;20043;-63
2022/03/30 03:53:23;;;;;;;9.00;3.40;;;;;;;-0.48;50.93;98614.34;5073235;28;20016;-61
2022/03/30 03:55:48;;;;;;;4.18;3.30;;;;;;;1.45;45.27;98608.44;5072940;28;20021;-63
2022/03/30 03:58:14;;;;;;;3.58;2.95;;;;;;;2.92;42.10;98599.81;5072827;28;20029;-62
2022/03/30 04:00:39;;;;;;;4.18;2.90;;;;;;;4.06;39.64;98608.59;5054936;28;20378;-64
2022/03/30 04:03:05;;;;;;;5.38;2.97;;;;;;;4.96;37.43;98600.09;5072825;28;20036;-63
2022/03/30 04:05:31;;;;;;;4.35;3.08;;;;;;;5.15;36.06;98602.16;5072789;28;20191;-59
2022/03/30 04:07:56;;;;;;;4.22;3.30;;;;;;;4.56;36.54;98614.59;5054968;28;20150;-64
2022/03/30 04:10:22;;;;;;;4.65;3.28;;;;;;;3.93;38.01;98604.19;5072813;28;20045;-62
2022/03/30 04:12:47;;;;;;;3.97;3.38;;;;;;;4.83;36.97;98607.31;5052279;28;20032;-63
2022/03/30 04:15:13;;;;;;;5.68;4.10;;;;;;;6.24;34.27;98617.50;5072527;28;20024;-65
2022/03/30 04:17:46;;;;;;;8.23;4.85;;;;;;;7.19;33.32;98622.91;5054644;28;20031;-64
2022/03/30 04:20:14;;;;;;;9.00;4.68;;;;;;;7.56;32.53;98618.88;5070156;28;20477;-65
2022/03/30 04:22:41;;;;;;;8.68;4.80;;;;;;;7.21;32.73;98620.13;5072201;28;20386;-64
2022/03/30 04:25:07;;;;;;;7.82;4.97;;;;;;;6.34;34.25;98633.53;5054527;28;20020;-66
2022/03/30 04:27:33;;;;;;;8.65;4.95;;;;;;;5.36;35.50;98624.50;5072313;28;20044;-66
2022/03/30 04:29:58;;;;;;;7.78;5.13;;;;;;;4.28;37.94;98647.59;5053545;28;20414;-66
2022/03/30 04:32:23;;;;;;;6.13;4.78;;;;;;;3.32;39.83;98651.75;5053979;28;20059;-64
2022/03/30 04:34:49;;;;;;;8.48;5.30;;;;;;;2.63;41.31;98652.84;5072331;28;20051;-57
2022/03/30 04:37:16;;;;;;;8.23;5.05;;;;;;;1.97;42.97;98662.34;5069921;28;20041;-54
2022/03/30 04:39:41;;;;;;;6.50;5.10;;;;;;;1.26;43.95;98612.22;5053706;28;20048;-65
2022/03/30 04:42:07;;;;;;;11.30;5.03;;;;;;;1.20;44.85;98657.41;5053468;28;20107;-66
2022/03/30 04:44:32;;;;;;;8.60;5.60;;;;;;;2.78;43.15;98670.34;5071745;28;20097;-61
2022/03/30 04:46:58;;;;;;;11.52;5.45;;;;;;;5.88;36.05;98611.50;5054103;28;20028;-64
2022/03/30 04:49:24;;;;;;;8.05;5.13;;;;;;;8.76;30.56;98650.00;5053336;28;20466;-64
2022/03/30 04:51:49;;;;;;;8.45;5.13;;;;;;;10.56;27.63;98641.94;5072055;28;20027;-67
2022/03/30 04:54:17;;;;;;;7.10;5.57;;;;;;;12.06;25.63;98645.44;5071395;28;20100;-63
2022/03/30 04:56:44;;;;;;;9.07;5.70;;;;;;;13.34;23.80;98637.97;5070832;28;20037;-64
2022/03/30 04:59:09;;;;;;;9.00;4.97;;;;;;;14.71;22.18;98637.88;5071032;28;20028;-63
2022/03/30 05:01:35;;;;;;;5.30;4.22;;;;;;;16.10;20.62;98650.16;5068599;28;20041;-63
2022/03/30 05:04:01;;;;;;;5.97;4.32;;;;;;;17.05;18.99;98649.31;5071556;28;20024;-62
2022/03/30 05:06:26;;;;;;;6.70;4.47;;;;;;;16.85;19.17;98647.22;5071046;28;20029;-62
2022/03/30 05:08:52;;;;;;;4.50;3.88;;;;;;;17.63;18.40;98659.06;5072076;28;20039;-61
2022/03/30 05:11:17;;;;;;;3.63;3.30;;;;;;;18.51;17.65;98653.03;5072735;28;20038;-65
2022/03/30 05:13:43;;;;;;;5.63;3.60;;;;;;;19.34;16.45;98650.22;5071873;28;20071;-64
2022/03/30 05:16:08;;;;;;;4.20;3.33;;;;;;;20.02;15.63;98651.78;5071474;28;20140;-62
2022/03/30 05:18:34;;;;;;;5.93;3.30;;;;;;;19.53;15.93;98664.81;5072558;28;20032;-65
2022/03/30 05:20:59;;;;;;;6.85;3.75;;;;;;;20.26;15.44;98671.13;5072343;28;20039;-64
2022/03/30 05:23:24;;;;;;;4.70;3.35;;;;;;;19.05;15.84;98672.16;5072697;28;20032;-63
2022/03/30 05:25:50;;;;;;;4.90;3.15;;;;;;;18.71;16.31;98679.34;5072710;28;20116;-63
2022/03/30 05:28:16;;;;;;;5.32;3.05;;;;;;;18.25;16.08;98685.47;5072518;28;20025;-64
2022/03/30 05:30:41;;;;;;;3.33;3.03;;;;;;;16.01;18.16;98670.19;5072375;28;20355;-65
2022/03/30 05:33:07;;;;;;;4.35;2.92;;;;;;;15.06;19.03;98701.13;5053774;28;20040;-62
2022/03/30 05:35:33;;;;;;;4.53;2.83;;;;;;;15.61;18.63;98692.84;5071906;28;20101;-66
2022/03/30 05:37:58;;;;;;;4.05;3.08;;;;;;;16.41;17.98;98683.34;5072544;28;20416;-63
2022/03/30 05:40:24;;;;;;;6.53;2.70;;;;;;;17.63;16.65;98691.56;5071916;28;20062;-64
2022/03/30 05:42:49;;;;;;;5.50;3.30;;;;;;;18.05;16.17;98702.44;5071436;28;20033;-62
2022/03/30 05:45:15;;;;;;;4.05;2.95;;;;;;;20.05;14.52;98700.25;5071300;28;20032;-65
2022/03/30 05:47:42;;;;;;;6.10;2.40;;;;;;;21.87;13.18;98696.38;5070618;28;20052;-64
2022/03/30 05:50:09;;;;;;;5.45;2.95;;;;;;;23.51;11.92;98678.44;5051273;28;20036;-63
2022/03/30 05:52:34;;;;;;;4.30;2.85;;;;;;;23.50;11.64;98693.16;5071723;28;20035;-59
2022/03/30 05:55:00;;;;;;;3.78;2.90;;;;;;;20.53;13.38;98679.16;5070764;28;20020;-66
2022/03/30 05:57:26;;;;;;;5.85;3.20;;;;;;;17.27;16.03;98704.19;5069087;28;20029;-70
2022/03/30 05:59:52;;;;;;;3.22;2.97;;;;;;;16.27;17.49;98712.88;5072139;28;20032;-66
2022/03/30 06:02:18;;;;;;;4.68;3.03;;;;;;;18.25;15.55;98683.59;5070234;28;20028;-73
2022/03/30 06:04:45;;;;;;;4.45;3.13;;;;;;;18.18;15.40;98716.06;5067954;28;20366;-67
2022/03/30 06:07:11;;;;;;;4.53;2.80;;;;;;;16.63;16.38;98708.53;5071087;28;20037;-67
2022/03/30 06:09:36;;;;;;;5.10;3.00;;;;;;;14.45;18.13;98709.88;5069625;28;20059;-70
2022/03/30 06:12:04;;;;;;;3.53;3.13;;;;;;;13.46;19.80;98734.41;5070691;28;20024;-69
2022/03/30 06:14:33;;;;;;;6.03;3.22;;;;;;;12.88;20.67;98735.22;5070967;28;20059;-72
2022/03/30 06:17:03;;;;;;;5.40;3.13;;;;;;;12.50;20.93;98732.13;5070224;28;20032;-71
2022/03/30 06:19:29;;;;;;;4.30;2.70;;;;;;;14.37;18.81;98726.09;5069525;28;20508;-69
2022/03/30 06:21:55;;;;;;;4.28;2.95;;;;;;;14.16;18.77;98727.53;5070769;28;20107;-62
2022/03/30 06:24:21;;;;;;;4.30;2.83;;;;;;;13.27;19.68;98733.75;5071047;28;20496;-71
2022/03/30 06:26:46;;;;;;;5.07;2.53;;;;;;;12.05;20.58;98707.28;5070472;28;20028;-70
2022/03/30 06:29:12;;;;;;;4.85;2.63;;;;;;;11.67;21.66;98739.75;5070812;28;20025;-71
2022/03/30 06:31:38;;;;;;;3.45;2.63;;;;;;;12.25;20.99;98747.28;5070445;28;20099;-71
2022/03/30 06:34:04;;;;;;;2.70;2.47;;;;;;;12.99;19.32;98750.16;5070467;28;20108;-70
2022/03/30 06:36:31;;;;;;;2.92;1.85;;;;;;;13.25;18.94;98735.75;5068875;28;20482;-68
2022/03/30 06:38:58;;;;;;;2.03;1.83;;;;;;;12.43;19.74;98745.34;5069503;28;20047;-54
2022/03/30 06:41:24;;;;;;;5.22;2.28;;;;;;;10.92;21.57;98749.06;5070796;28;20064;-70
2022/03/30 06:43:50;;;;;;;3.58;2.28;;;;;;;10.17;22.56;98766.94;5070633;28;20025;-68
2022/03/30 06:46:17;;;;;;;5.65;2.30;;;;;;;9.93;22.92;98771.94;5070726;28;20420;-71
2022/03/30 06:48:45;;;;;;;3.75;2.25;;;;;;;9.22;23.09;98752.66;5044640;28;20083;-70
2022/03/30 06:51:12;;;;;;;4.35;2.67;;;;;;;8.38;24.34;98768.97;5050821;28;20099;-70
2022/03/30 06:53:38;;;;;;;3.72;2.65;;;;;;;7.66;25.08;98762.78;5033033;28;20032;-74
2022/03/30 06:56:03;;;;;;;4.75;2.42;;;;;;;7.11;25.92;98769.13;5058053;28;20032;-70
2022/03/30 06:58:29;;;;;;;3.97;2.45;;;;;;;6.72;26.74;98785.59;5069729;28;20029;-60
2022/03/30 07:00:56;;;;;;;3.70;2.47;;;;;;;6.11;27.25;98749.66;5070548;28;20040;-65
2022/03/30 07:03:26;;;;;;;7.75;2.67;;;;;;;5.98;27.99;98787.81;5068585;28;20059;-66
2022/03/30 07:05:51;;;;;;;5.95;2.35;;;;;;;6.65;26.68;98785.25;5070134;28;20089;-65
2022/03/30 07:11:01;;;;;;;3.20;2.40;;;;;;;8.22;24.22;98790.81;5070628;28;20115;-64
2022/03/30 07:13:26;;;;;;;3.78;2.38;;;;;;;11.09;21.58;98786.69;5070590;28;20136;-66
2022/03/30 07:15:52;;;;;;;3.05;2.60;;;;;;;11.58;20.34;98765.69;5067494;28;20033;-66
2022/03/30 07:18:19;;;;;;;2.78;2.50;;;;;;;11.25;21.05;98792.19;5061722;28;20097;-66
2022/03/30 07:20:45;;;;;;;3.95;2.45;;;;;;;11.03;20.99;98794.34;5070419;28;20040;-64
2022/03/30 07:23:10;;;;;;;2.00;1.80;;;;;;;9.59;21.78;98752.75;5070116;28;20047;-63
2022/03/30 07:25:37;;;;;;;5.32;2.40;;;;;;;8.72;24.08;98803.38;5070277;28;20036;-64
2022/03/30 07:28:03;;;;;;;6.35;2.50;;;;;;;9.73;22.90;98809.41;5069113;28;20033;-70
2022/03/30 07:30:30;;;;;;;4.68;2.80;;;;;;;9.41;22.75;98751.81;5069993;28;20060;-62
2022/03/30 07:32:56;;;;;;;4.15;3.22;;;;;;;9.18;23.34;98818.88;5056320;28;20044;-69
2022/03/30 07:35:24;;;;;;;5.15;2.35;;;;;;;8.53;23.96;98820.16;5070291;28;20045;-65
2022/03/30 07:37:50;;;;;;;2.83;2.00;;;;;;;11.43;21.65;98818.16;5069308;28;20570;-69
2022/03/30 07:40:18;;;;;;;5.47;2.15;;;;;;;13.26;19.11;98815.41;5070015;28;20037;-64
2022/03/30 07:42:46;;;;;;;3.95;2.08;;;;;;;12.91;19.21;98823.56;5059640;28;20029;-68
2022/03/30 07:45:12;;;;;;;3.05;2.03;;;;;;;11.85;19.73;98781.75;5070457;28;20036;-63
2022/03/30 07:47:37;;;;;;;5.32;2.00;;;;;;;10.80;21.22;98826.09;5069640;28;20020;-67
2022/03/30 07:50:05;;;;;;;4.72;2.28;;;;;;;9.66;23.06;98832.38;5070296;28;20036;-66
2022/03/30 07:52:31;;;;;;;2.10;1.90;;;;;;;9.81;22.47;98833.59;5069736;28;20082;-65
2022/03/30 07:54:57;;;;;;;8.43;2.30;;;;;;;11.48;20.98;98823.88;5070479;28;20029;-65
2022/03/30 07:57:28;;;;;;;4.50;2.08;;;;;;;12.37;19.76;98820.31;5070241;28;20510;-66
2022/03/30 07:59:59;;;;;;;3.85;2.10;;;;;;;14.73;17.30;98819.91;5070464;28;20043;-65
2022/03/30 08:02:27;;;;;;;3.17;1.90;;;;;;;16.81;15.31;98827.03;5069926;28;20040;-68
2022/03/30 08:04:53;;;;;;;3.97;1.80;;;;;;;16.59;14.82;98826.97;5068780;28;20028;-65
2022/03/30 08:07:19;;;;;;;4.05;1.60;;;;;;;14.99;15.73;98829.53;5051789;28;20087;-66
2022/03/30 08:09:45;;;;;;;4.20;1.88;;;;;;;13.24;17.58;98830.81;5069873;28;20033;-65
2022/03/30 08:12:12;;;;;;;3.40;1.85;;;;;;;11.59;19.17;98833.53;5053980;28;20131;-67
2022/03/30 08:14:38;;;;;;;4.43;2.30;;;;;;;10.17;20.93;98852.53;5073529;28;20405;-66
2022/03/30 08:17:05;;;;;;;4.57;2.28;;;;;;;8.98;22.91;98845.56;5072305;28;20039;-67
2022/03/30 08:19:30;;;;;;;4.55;2.13;;;;;;;8.23;23.75;98845.84;5071974;28;20048;-60
2022/03/30 08:24:45;;;;;;;2.88;2.13;;;;;;;7.03;25.30;98841.63;5073365;28;20111;-64
2022/03/30 08:27:15;;;;;;;4.43;2.15;;;;;;;6.81;25.77;98840.72;5073282;28;20182;-66
2022/03/30 08:29:40;;;;;;;3.25;2.17;;;;;;;6.51;25.55;98841.34;5073127;28;20462;-65
2022/03/30 08:32:06;;;;;;;4.25;2.10;;;;;;;6.13;26.12;98844.28;5073482;28;20195;-65
2022/03/30 08:34:32;;;;;;;3.92;2.00;;;;;;;5.83;26.68;98853.63;5073302;28;20123;-65
2022/03/30 08:36:58;;;;;;;5.25;2.03;;;;;;;5.48;26.16;98809.34;5073279;28;20041;-62
2022/03/30 08:39:24;;;;;;;3.67;1.60;;;;;;;5.84;26.02;98862.44;5073251;28;20033;-66
2022/03/30 08:41:50;;;;;;;3.00;1.50;;;;;;;5.82;25.37;98851.06;5066459;28;20135;-67
2022/03/30 08:44:17;;;;;;;3.20;1.38;;;;;;;5.92;25.69;98848.56;5070926;28;20044;-67
2022/03/30 08:46:45;;;;;;;3.40;1.40;;;;;;;6.31;25.63;98851.78;5072594;28;20389;-65
2022/03/30 08:49:12;;;;;;;5.80;1.52;;;;;;;6.70;24.34;98835.44;5072542;28;20028;-66
2022/03/30 08:51:40;;;;;;;1.80;1.50;;;;;;;6.97;24.31;98842.97;5073029;28;20028;-65
2022/03/30 08:54:10;;;;;;;1.70;1.27;;;;;;;6.94;24.18;98803.31;5072591;28;20081;-65
2022/03/30 08:56:37;;;;;;;3.42;1.60;;;;;;;6.74;24.52;98807.59;5073027;28;20032;-66
2022/03/30 08:59:07;;;;;;;2.40;1.40;;;;;;;6.84;24.59;98848.44;5072839;28;20462;-69
2022/03/30 09:01:34;;;;;;;1.90;1.67;;;;;;;6.56;25.05;98855.16;5071589;28;20032;-67
2022/03/30 09:04:03;;;;;;;3.58;1.40;;;;;;;6.34;25.59;98856.84;5072553;28;20090;-65
2022/03/30 09:06:41;;;;;;;2.42;1.50;;;;;;;6.27;26.12;98859.13;5073367;28;20032;-63
2022/03/30 09:09:07;;;;;;;1.85;1.52;;;;;;;6.15;25.91;98857.44;5062181;28;20028;-66
2022/03/30 09:11:55;;;;;;;1.85;1.40;;;;;;;6.06;26.19;98864.31;5071110;28;20032;-63
2022/03/30 09:14:24;;;;;;;2.08;1.40;;;;;;;5.78;25.86;98862.91;5038439;28;20436;-63
2022/03/30 09:16:57;;;;;;;2.05;1.73;;;;;;;5.67;27.19;98863.72;5072328;28;20025;-65
2022/03/30 09:19:23;;;;;;;1.40;1.30;;;;;;;5.43;26.71;98859.28;5071660;28;20802;-63
2022/03/30 09:21:57;;;;;;;3.22;1.67;;;;;;;5.27;27.83;98865.72;5072042;28;20115;-66
2022/03/30 09:24:25;;;;;;;2.80;1.15;;;;;;;5.13;28.17;98876.53;5072372;28;20032;-66
2022/03/30 09:26:51;;;;;;;1.60;1.50;;;;;;;4.95;28.01;98870.78;5053648;28;20435;-64
2022/03/30 09:29:22;;;;;;;1.83;1.20;;;;;;;4.81;28.63;98866.44;5037414;28;20033;-69
2022/03/30 09:31:49;;;;;;;1.65;1.50;;;;;;;4.57;28.89;98848.69;5072009;28;20112;-65
2022/03/30 09:34:16;;;;;;;1.60;1.50;;;;;;;4.41;28.73;98865.69;5071848;28;20032;-62
2022/03/30 09:36:43;;;;;;;4.20;1.70;;;;;;;4.35;29.51;98866.16;5071783;28;20052;-66
2022/03/30 09:39:29;;;;;;;2.30;1.88;;;;;;;4.54;29.32;98868.34;5072108;28;20045;-69
2022/03/30 09:41:56;;;;;;;4.63;1.90;;;;;;;4.52;29.38;98866.72;5071843;28;20076;-68
2022/03/30 09:44:22;;;;;;;3.17;1.90;;;;;;;4.57;29.67;98875.19;5071737;28;20076;-67
2022/03/30 09:47:05;;;;;;;2.88;2.03;;;;;;;4.83;30.17;98876.00;5071764;28;20067;-66
2022/03/30 09:49:41;;;;;;;2.55;1.65;;;;;;;5.27;28.82;98876.34;5058312;28;20029;-63
2022/03/30 09:52:25;;;;;;;3.15;2.22;;;;;;;5.78;28.12;98881.50;5071082;28;20040;-66
2022/03/30 09:54:55;;;;;;;8.27;1.70;;;;;;;5.97;27.23;98883.59;5068761;28;20044;-66
2022/03/30 09:57:24;;;;;;;5.68;1.30;;;;;;;6.11;26.35;98883.41;5070928;28;20086;-67
2022/03/30 10:00:00;;;;;;;3.45;1.42;;;;;;;6.21;26.66;98877.38;5071180;28;20393;-67
2022/03/30 10:02:30;;;;;;;2.58;1.13;;;;;;;6.47;26.27;98883.31;5070667;28;20032;-67
2022/03/30 10:04:57;;;;;;;3.60;1.48;;;;;;;6.57;26.40;98880.78;5071311;28;20039;-66
2022/03/30 10:07:23;;;;;;;3.78;1.55;;;;;;;6.74;26.12;98861.63;5070925;28;20052;-68
2022/03/30 10:09:49;;;;;;;6.05;1.98;;;;;;;6.89;26.42;98872.03;5070548;28;20115;-70
2022/03/30 10:12:17;;;;;;;1.75;1.30;;;;;;;6.93;26.56;98877.97;5071539;28;20036;-67
2022/03/30 10:14:45;;;;;;;1.70;1.35;;;;;;;6.91;26.73;98870.09;5071656;28;20493;-66
2022/03/30 10:17:11;;;;;;;1.63;1.20;;;;;;;6.92;26.87;98884.25;5070556;28;20035;-63
2022/03/30 10:19:40;;;;;;;3.50;1.48;;;;;;;6.62;27.14;98844.00;5070635;28;20031;-67
2022/03/30 10:22:19;;;;;;;1.27;1.10;;;;;;;6.83;26.86;98881.34;5070239;28;20032;-62
2022/03/30 10:24:55;;;;;;;1.35;1.15;;;;;;;6.97;26.73;98884.72;5069446;28;20035;-65
2022/03/30 10:27:30;;;;;;;2.70;1.27;;;;;;;7.10;26.30;98873.91;5068775;28;20036;-67
2022/03/30 10:30:00;;;;;;;1.98;1.33;;;;;;;7.28;25.98;98882.22;5070280;28;20090;-64
2022/03/30 10:32:32;;;;;;;2.58;1.73;;;;;;;7.35;25.87;98877.22;5071022;28;20075;-65
2022/03/30 10:35:05;;;;;;;3.00;2.03;;;;;;;7.33;26.20;98878.19;5069828;28;20044;-66
2022/03/30 10:37:38;;;;;;;1.73;1.60;;;;;;;7.22;26.92;98880.06;5070507;28;20503;-64
2022/03/30 10:40:03;;;;;;;4.47;1.95;;;;;;;6.96;26.40;98867.88;5071321;28;20041;-67
2022/03/30 10:42:47;;;;;;;5.43;2.25;;;;;;;6.81;27.35;98874.47;5070760;28;20032;-71
2022/03/30 10:45:28;;;;;;;3.05;2.10;;;;;;;6.65;27.58;98874.84;5070431;28;20032;-65
2022/03/30 10:48:09;;;;;;;3.92;1.90;;;;;;;6.60;27.57;98885.84;5070841;28;20119;-65
2022/03/30 10:50:39;;;;;;;3.75;1.75;;;;;;;6.44;27.24;98884.38;5052288;28;20036;-66
2022/03/30 10:53:30;;;;;;;2.75;1.75;;;;;;;6.39;27.38;98870.63;5070880;28;20032;-67
2022/03/30 10:56:14;;;;;;;1.75;1.48;;;;;;;6.26;27.13;98877.84;5070066;28;20032;-66
2022/03/30 10:58:49;;;;;;;2.83;1.70;;;;;;;5.84;27.29;98847.34;5069177;28;20478;-65
2022/03/30 11:01:18;;;;;;;2.72;1.70;;;;;;;5.74;27.44;98879.06;5070317;28;20112;-62
2022/03/30 11:04:02;;;;;;;2.17;1.55;;;;;;;5.65;28.07;98870.97;5070518;28;20056;-64
2022/03/30 11:06:34;;;;;;;2.20;1.30;;;;;;;5.20;28.63;98887.56;5069666;28;20904;-68
2022/03/30 11:09:02;;;;;;;3.17;1.50;;;;;;;4.81;28.74;98885.00;5070400;28;20478;-65
2022/03/30 11:11:39;;;;;;;2.10;1.65;;;;;;;4.59;29.10;98862.72;5068976;28;20485;-66
2022/03/30 11:14:39;;;;;;;4.05;1.95;;;;;;;4.83;29.37;98883.13;5070487;28;20028;-65
2022/03/30 11:17:13;;;;;;;3.78;1.85;;;;;;;4.87;29.55;98879.28;5052926;28;20375;-67
2022/03/30 11:19:47;;;;;;;5.32;2.25;;;;;;;4.96;28.85;98881.25;5070409;28;20044;-66
2022/03/30 11:22:22;;;;;;;2.53;1.30;;;;;;;5.00;27.77;98882.72;5070304;28;20035;-64
2022/03/30 11:25:12;;;;;;;3.25;1.42;;;;;;;5.13;27.78;98880.03;5070444;28;20416;-64
2022/03/30 11:27:39;;;;;;;1.90;1.40;;;;;;;4.98;28.04;98878.50;5070659;28;20378;-64
2022/03/30 11:30:09;;;;;;;5.70;1.60;;;;;;;4.91;28.30;98883.41;5070762;28;20083;-63
2022/03/30 11:32:37;;;;;;;2.40;1.30;;;;;;;4.70;27.79;98885.78;5070043;28;20488;-69
2022/03/30 11:35:11;;;;;;;4.82;1.30;;;;;;;4.52;28.03;98880.00;5069820;28;20448;-65
2022/03/30 11:37:42;;;;;;;2.30;1.55;;;;;;;4.27;28.10;98887.88;5070752;28;20371;-66
2022/03/30 11:40:12;;;;;;;1.90;1.30;;;;;;;4.18;27.84;98885.00;5070500;28;20044;-68
2022/03/30 11:42:41;;;;;;;2.85;1.45;;;;;;;4.18;27.55;98871.78;5070323;28;20037;-65
2022/03/30 11:45:15;;;;;;;2.20;1.20;;;;;;;4.16;27.71;98878.03;5070261;28;20055;-66
2022/03/30 11:47:48;;;;;;;1.97;1.40;;;;;;;4.14;27.77;98869.34;5073442;28;20402;-58
2022/03/30 11:50:17;;;;;;;3.97;1.50;;;;;;;4.13;27.82;98877.38;5073815;28;20025;-66